sensor_id;sensor_type;location;lat;lon;timestamp;temperature;humidity
40654;DHT22;26344;45.532;9.232;2023-11-19T00:00:54;16.40;95.50
40654;DHT22;26344;45.532;9.232;2023-11-19T00:03:19;14.80;88.20
40654;DHT22;26344;45.532;9.232;2023-11-19T00:05:45;14.80;88.20
40654;DHT22;26344;45.532;9.232;2023-11-19T00:08:11;14.80;88.50
40654;DHT22;26344;45.532;9.232;2023-11-19T00:10:36;16.20;91.10
40654;DHT22;26344;45.532;9.232;2023-11-19T00:13:02;15.90;89.90
40654;DHT22;26344;45.532;9.232;2023-11-19T00:15:30;14.90;88.80
40654;DHT22;26344;45.532;9.232;2023-11-19T00:17:56;15.00;89.00
40654;DHT22;26344;45.532;9.232;2023-11-19T00:20:21;14.80;88.80
40654;DHT22;26344;45.532;9.232;2023-11-19T00:22:47;14.80;89.00
40654;DHT22;26344;45.532;9.232;2023-11-19T00:25:15;14.80;89.00
40654;DHT22;26344;45.532;9.232;2023-11-19T00:27:40;14.80;89.20
40654;DHT22;26344;45.532;9.232;2023-11-19T00:30:06;14.80;89.60
40654;DHT22;26344;45.532;9.232;2023-11-19T00:32:32;14.70;89.20
40654;DHT22;26344;45.532;9.232;2023-11-19T00:34:58;14.60;89.30
40654;DHT22;26344;45.532;9.232;2023-11-19T00:37:23;15.10;89.70
40654;DHT22;26344;45.532;9.232;2023-11-19T00:39:49;15.20;90.20
40654;DHT22;26344;45.532;9.232;2023-11-19T00:42:14;14.70;90.00
40654;DHT22;26344;45.532;9.232;2023-11-19T00:44:40;14.70;90.20
40654;DHT22;26344;45.532;9.232;2023-11-19T00:47:06;14.60;90.30
40654;DHT22;26344;45.532;9.232;2023-11-19T00:49:31;14.50;90.40
40654;DHT22;26344;45.532;9.232;2023-11-19T00:52:00;15.20;90.70
40654;DHT22;26344;45.532;9.232;2023-11-19T00:54:27;14.50;90.60
40654;DHT22;26344;45.532;9.232;2023-11-19T00:56:52;14.50;90.80
40654;DHT22;26344;45.532;9.232;2023-11-19T00:59:18;15.10;91.00
40654;DHT22;26344;45.532;9.232;2023-11-19T01:01:44;14.50;90.90
40654;DHT22;26344;45.532;9.232;2023-11-19T01:04:09;14.50;91.10
40654;DHT22;26344;45.532;9.232;2023-11-19T01:06:35;14.50;91.10
40654;DHT22;26344;45.532;9.232;2023-11-19T01:09:00;14.40;91.90
40654;DHT22;26344;45.532;9.232;2023-11-19T01:11:26;14.90;91.50
40654;DHT22;26344;45.532;9.232;2023-11-19T01:13:51;14.40;91.70
40654;DHT22;26344;45.532;9.232;2023-11-19T01:16:17;14.50;91.60
40654;DHT22;26344;45.532;9.232;2023-11-19T01:18:47;14.30;91.60
40654;DHT22;26344;45.532;9.232;2023-11-19T01:21:13;14.40;91.80
40654;DHT22;26344;45.532;9.232;2023-11-19T01:23:40;14.30;91.90
40654;DHT22;26344;45.532;9.232;2023-11-19T01:26:05;14.30;92.00
40654;DHT22;26344;45.532;9.232;2023-11-19T01:28:31;14.30;92.10
40654;DHT22;26344;45.532;9.232;2023-11-19T01:30:56;14.30;92.10
40654;DHT22;26344;45.532;9.232;2023-11-19T01:33:22;14.60;92.30
40654;DHT22;26344;45.532;9.232;2023-11-19T01:35:47;14.40;92.40
40654;DHT22;26344;45.532;9.232;2023-11-19T01:38:13;14.20;92.50
40654;DHT22;26344;45.532;9.232;2023-11-19T01:40:38;15.60;92.90
40654;DHT22;26344;45.532;9.232;2023-11-19T01:43:04;15.10;92.90
40654;DHT22;26344;45.532;9.232;2023-11-19T01:45:30;14.20;92.70
40654;DHT22;26344;45.532;9.232;2023-11-19T01:47:56;14.30;92.80
40654;DHT22;26344;45.532;9.232;2023-11-19T01:50:22;14.20;92.90
40654;DHT22;26344;45.532;9.232;2023-11-19T01:52:48;14.60;99.90
40654;DHT22;26344;45.532;9.232;2023-11-19T01:55:13;14.50;94.20
40654;DHT22;26344;45.532;9.232;2023-11-19T01:57:39;14.50;95.20
40654;DHT22;26344;45.532;9.232;2023-11-19T02:00:06;14.30;94.40
40654;DHT22;26344;45.532;9.232;2023-11-19T02:02:36;14.20;93.90
40654;DHT22;26344;45.532;9.232;2023-11-19T02:05:02;14.00;93.60
40654;DHT22;26344;45.532;9.232;2023-11-19T02:07:28;14.00;93.50
40654;DHT22;26344;45.532;9.232;2023-11-19T02:09:53;14.10;93.60
40654;DHT22;26344;45.532;9.232;2023-11-19T02:12:19;15.10;94.40
40654;DHT22;26344;45.532;9.232;2023-11-19T02:14:45;14.00;99.90
40654;DHT22;26344;45.532;9.232;2023-11-19T02:17:26;15.00;94.80
40654;DHT22;26344;45.532;9.232;2023-11-19T02:19:52;14.10;93.90
40654;DHT22;26344;45.532;9.232;2023-11-19T02:22:18;14.70;94.40
40654;DHT22;26344;45.532;9.232;2023-11-19T02:24:44;14.00;94.20
40654;DHT22;26344;45.532;9.232;2023-11-19T02:27:15;13.90;93.90
40654;DHT22;26344;45.532;9.232;2023-11-19T02:29:41;13.80;93.60
40654;DHT22;26344;45.532;9.232;2023-11-19T02:32:07;13.90;94.00
40654;DHT22;26344;45.532;9.232;2023-11-19T02:34:34;13.70;98.90
40654;DHT22;26344;45.532;9.232;2023-11-19T02:39:25;13.90;99.90
40654;DHT22;26344;45.532;9.232;2023-11-19T02:41:51;13.80;94.10
40654;DHT22;26344;45.532;9.232;2023-11-19T02:44:18;13.80;94.20
40654;DHT22;26344;45.532;9.232;2023-11-19T02:46:43;13.90;94.30
40654;DHT22;26344;45.532;9.232;2023-11-19T02:49:09;13.70;94.30
40654;DHT22;26344;45.532;9.232;2023-11-19T02:51:35;13.70;94.30
40654;DHT22;26344;45.532;9.232;2023-11-19T02:54:01;13.70;94.40
40654;DHT22;26344;45.532;9.232;2023-11-19T02:56:28;13.70;94.50
40654;DHT22;26344;45.532;9.232;2023-11-19T02:58:59;13.60;94.60
40654;DHT22;26344;45.532;9.232;2023-11-19T03:01:33;13.60;94.60
40654;DHT22;26344;45.532;9.232;2023-11-19T03:04:00;13.60;94.40
40654;DHT22;26344;45.532;9.232;2023-11-19T03:06:26;13.60;94.50
40654;DHT22;26344;45.532;9.232;2023-11-19T03:08:55;13.50;94.60
40654;DHT22;26344;45.532;9.232;2023-11-19T03:11:20;13.60;94.70
40654;DHT22;26344;45.532;9.232;2023-11-19T03:13:46;13.50;94.60
40654;DHT22;26344;45.532;9.232;2023-11-19T03:16:12;13.40;94.70
40654;DHT22;26344;45.532;9.232;2023-11-19T03:18:37;13.50;94.70
40654;DHT22;26344;45.532;9.232;2023-11-19T03:21:05;13.50;94.70
40654;DHT22;26344;45.532;9.232;2023-11-19T03:23:30;13.40;95.00
40654;DHT22;26344;45.532;9.232;2023-11-19T03:25:56;13.40;95.10
40654;DHT22;26344;45.532;9.232;2023-11-19T03:28:22;13.50;96.40
40654;DHT22;26344;45.532;9.232;2023-11-19T03:30:47;13.40;95.10
40654;DHT22;26344;45.532;9.232;2023-11-19T03:33:13;13.60;95.20
40654;DHT22;26344;45.532;9.232;2023-11-19T03:35:38;13.50;95.30
40654;DHT22;26344;45.532;9.232;2023-11-19T03:38:06;13.40;95.40
40654;DHT22;26344;45.532;9.232;2023-11-19T03:40:31;13.70;95.70
40654;DHT22;26344;45.532;9.232;2023-11-19T03:42:57;13.40;95.70
40654;DHT22;26344;45.532;9.232;2023-11-19T03:45:25;13.30;95.50
40654;DHT22;26344;45.532;9.232;2023-11-19T03:47:51;13.30;95.60
40654;DHT22;26344;45.532;9.232;2023-11-19T03:50:16;13.30;95.70
40654;DHT22;26344;45.532;9.232;2023-11-19T03:52:43;13.50;95.80
40654;DHT22;26344;45.532;9.232;2023-11-19T03:55:08;13.30;95.90
40654;DHT22;26344;45.532;9.232;2023-11-19T03:57:34;13.40;96.00
40654;DHT22;26344;45.532;9.232;2023-11-19T04:00:00;13.80;96.20
40654;DHT22;26344;45.532;9.232;2023-11-19T04:02:27;13.30;96.10
40654;DHT22;26344;45.532;9.232;2023-11-19T04:04:53;13.50;96.10
40654;DHT22;26344;45.532;9.232;2023-11-19T04:07:18;13.50;96.00
40654;DHT22;26344;45.532;9.232;2023-11-19T04:09:44;13.40;96.10
40654;DHT22;26344;45.532;9.232;2023-11-19T04:12:12;13.60;97.00
40654;DHT22;26344;45.532;9.232;2023-11-19T04:14:37;13.50;96.30
40654;DHT22;26344;45.532;9.232;2023-11-19T04:17:03;13.30;96.60
40654;DHT22;26344;45.532;9.232;2023-11-19T04:19:28;13.20;96.00
40654;DHT22;26344;45.532;9.232;2023-11-19T04:21:54;13.30;96.40
40654;DHT22;26344;45.532;9.232;2023-11-19T04:24:19;13.40;96.10
40654;DHT22;26344;45.532;9.232;2023-11-19T04:26:45;13.10;96.10
40654;DHT22;26344;45.532;9.232;2023-11-19T04:29:12;13.30;96.00
40654;DHT22;26344;45.532;9.232;2023-11-19T04:31:38;13.20;96.00
40654;DHT22;26344;45.532;9.232;2023-11-19T04:34:05;13.10;95.90
40654;DHT22;26344;45.532;9.232;2023-11-19T04:36:31;14.10;96.20
40654;DHT22;26344;45.532;9.232;2023-11-19T04:38:58;13.10;96.00
40654;DHT22;26344;45.532;9.232;2023-11-19T04:41:24;13.00;96.10
40654;DHT22;26344;45.532;9.232;2023-11-19T04:43:50;13.10;96.10
40654;DHT22;26344;45.532;9.232;2023-11-19T04:46:15;13.00;96.10
40654;DHT22;26344;45.532;9.232;2023-11-19T04:48:41;13.20;96.20
40654;DHT22;26344;45.532;9.232;2023-11-19T04:51:07;13.30;96.20
40654;DHT22;26344;45.532;9.232;2023-11-19T04:53:34;13.00;96.20
40654;DHT22;26344;45.532;9.232;2023-11-19T04:56:00;13.00;96.20
40654;DHT22;26344;45.532;9.232;2023-11-19T04:58:25;13.00;96.20
40654;DHT22;26344;45.532;9.232;2023-11-19T05:00:51;13.00;96.20
40654;DHT22;26344;45.532;9.232;2023-11-19T05:03:16;13.40;96.30
40654;DHT22;26344;45.532;9.232;2023-11-19T05:05:43;12.90;96.20
40654;DHT22;26344;45.532;9.232;2023-11-19T05:08:08;13.00;96.20
40654;DHT22;26344;45.532;9.232;2023-11-19T05:10:34;12.90;96.20
40654;DHT22;26344;45.532;9.232;2023-11-19T05:12:59;13.00;96.30
40654;DHT22;26344;45.532;9.232;2023-11-19T05:15:25;12.90;96.30
40654;DHT22;26344;45.532;9.232;2023-11-19T05:17:51;12.90;96.20
40654;DHT22;26344;45.532;9.232;2023-11-19T05:20:16;12.90;96.20
40654;DHT22;26344;45.532;9.232;2023-11-19T05:22:42;12.90;96.30
40654;DHT22;26344;45.532;9.232;2023-11-19T05:25:08;13.00;96.40
40654;DHT22;26344;45.532;9.232;2023-11-19T05:27:37;12.90;96.30
40654;DHT22;26344;45.532;9.232;2023-11-19T05:30:04;13.10;96.50
40654;DHT22;26344;45.532;9.232;2023-11-19T05:32:32;12.80;96.40
40654;DHT22;26344;45.532;9.232;2023-11-19T05:34:58;12.90;96.40
40654;DHT22;26344;45.532;9.232;2023-11-19T05:37:24;12.70;96.40
40654;DHT22;26344;45.532;9.232;2023-11-19T05:39:50;12.90;96.40
40654;DHT22;26344;45.532;9.232;2023-11-19T05:42:15;12.80;96.40
40654;DHT22;26344;45.532;9.232;2023-11-19T05:44:41;12.80;96.50
40654;DHT22;26344;45.532;9.232;2023-11-19T05:47:06;12.80;96.50
40654;DHT22;26344;45.532;9.232;2023-11-19T05:49:32;12.80;96.40
40654;DHT22;26344;45.532;9.232;2023-11-19T05:51:58;13.40;96.60
40654;DHT22;26344;45.532;9.232;2023-11-19T05:54:23;12.70;96.40
40654;DHT22;26344;45.532;9.232;2023-11-19T05:56:49;12.80;96.50
40654;DHT22;26344;45.532;9.232;2023-11-19T05:59:15;12.50;96.40
40654;DHT22;26344;45.532;9.232;2023-11-19T06:01:45;12.80;96.50
40654;DHT22;26344;45.532;9.232;2023-11-19T06:04:11;12.80;99.90
40654;DHT22;26344;45.532;9.232;2023-11-19T06:06:37;13.80;99.90
40654;DHT22;26344;45.532;9.232;2023-11-19T06:09:03;14.10;98.20
40654;DHT22;26344;45.532;9.232;2023-11-19T06:11:29;13.10;97.50
40654;DHT22;26344;45.532;9.232;2023-11-19T06:13:54;12.70;97.10
40654;DHT22;26344;45.532;9.232;2023-11-19T06:16:20;12.70;97.00
40654;DHT22;26344;45.532;9.232;2023-11-19T06:18:45;13.90;97.30
40654;DHT22;26344;45.532;9.232;2023-11-19T06:21:11;12.80;97.20
40654;DHT22;26344;45.532;9.232;2023-11-19T06:23:37;12.70;96.90
40654;DHT22;26344;45.532;9.232;2023-11-19T06:26:03;13.30;97.10
40654;DHT22;26344;45.532;9.232;2023-11-19T06:28:28;12.70;97.00
40654;DHT22;26344;45.532;9.232;2023-11-19T06:30:54;12.80;97.00
40654;DHT22;26344;45.532;9.232;2023-11-19T06:33:19;13.50;97.10
40654;DHT22;26344;45.532;9.232;2023-11-19T06:35:45;12.70;97.80
40654;DHT22;26344;45.532;9.232;2023-11-19T06:38:10;12.40;96.70
40654;DHT22;26344;45.532;9.232;2023-11-19T06:40:36;12.60;96.80
40654;DHT22;26344;45.532;9.232;2023-11-19T06:43:01;12.50;96.50
40654;DHT22;26344;45.532;9.232;2023-11-19T06:45:28;13.50;96.60
40654;DHT22;26344;45.532;9.232;2023-11-19T06:47:54;12.70;96.40
40654;DHT22;26344;45.532;9.232;2023-11-19T06:50:19;13.20;96.20
40654;DHT22;26344;45.532;9.232;2023-11-19T06:52:45;12.60;96.20
40654;DHT22;26344;45.532;9.232;2023-11-19T06:55:11;12.40;96.00
40654;DHT22;26344;45.532;9.232;2023-11-19T06:57:37;12.60;96.30
40654;DHT22;26344;45.532;9.232;2023-11-19T07:00:03;13.10;96.30
40654;DHT22;26344;45.532;9.232;2023-11-19T07:02:30;12.60;96.10
40654;DHT22;26344;45.532;9.232;2023-11-19T07:04:56;12.60;96.50
40654;DHT22;26344;45.532;9.232;2023-11-19T07:07:22;12.80;99.90
40654;DHT22;26344;45.532;9.232;2023-11-19T07:09:49;12.50;97.50
40654;DHT22;26344;45.532;9.232;2023-11-19T07:12:15;12.40;96.60
40654;DHT22;26344;45.532;9.232;2023-11-19T07:14:40;12.50;96.50
40654;DHT22;26344;45.532;9.232;2023-11-19T07:17:07;12.70;96.20
40654;DHT22;26344;45.532;9.232;2023-11-19T07:19:34;12.40;96.50
40654;DHT22;26344;45.532;9.232;2023-11-19T07:22:00;12.50;96.90
40654;DHT22;26344;45.532;9.232;2023-11-19T07:24:26;12.40;96.60
40654;DHT22;26344;45.532;9.232;2023-11-19T07:26:53;12.40;96.60
40654;DHT22;26344;45.532;9.232;2023-11-19T07:29:19;12.50;96.50
40654;DHT22;26344;45.532;9.232;2023-11-19T07:31:48;13.00;96.50
40654;DHT22;26344;45.532;9.232;2023-11-19T07:34:14;12.50;96.20
40654;DHT22;26344;45.532;9.232;2023-11-19T07:36:39;12.40;95.80
40654;DHT22;26344;45.532;9.232;2023-11-19T07:39:05;12.40;96.30
40654;DHT22;26344;45.532;9.232;2023-11-19T07:41:31;12.40;96.00
40654;DHT22;26344;45.532;9.232;2023-11-19T07:43:56;12.40;96.00
40654;DHT22;26344;45.532;9.232;2023-11-19T07:46:22;12.80;96.20
40654;DHT22;26344;45.532;9.232;2023-11-19T07:48:47;12.50;96.20
40654;DHT22;26344;45.532;9.232;2023-11-19T07:51:13;13.00;99.90
40654;DHT22;26344;45.532;9.232;2023-11-19T07:53:39;12.60;96.10
40654;DHT22;26344;45.532;9.232;2023-11-19T07:56:06;12.60;96.30
40654;DHT22;26344;45.532;9.232;2023-11-19T07:58:31;12.70;95.90
40654;DHT22;26344;45.532;9.232;2023-11-19T08:00:57;12.80;96.70
40654;DHT22;26344;45.532;9.232;2023-11-19T08:03:23;12.70;99.90
40654;DHT22;26344;45.532;9.232;2023-11-19T08:05:48;12.80;99.90
40654;DHT22;26344;45.532;9.232;2023-11-19T08:08:14;12.80;95.70
40654;DHT22;26344;45.532;9.232;2023-11-19T08:10:40;12.80;95.70
40654;DHT22;26344;45.532;9.232;2023-11-19T08:13:05;12.90;95.70
40654;DHT22;26344;45.532;9.232;2023-11-19T08:15:31;12.90;95.90
40654;DHT22;26344;45.532;9.232;2023-11-19T08:17:57;12.90;96.30
40654;DHT22;26344;45.532;9.232;2023-11-19T08:20:22;13.10;96.60
40654;DHT22;26344;45.532;9.232;2023-11-19T08:22:48;13.20;96.30
40654;DHT22;26344;45.532;9.232;2023-11-19T08:25:14;13.40;96.20
40654;DHT22;26344;45.532;9.232;2023-11-19T08:27:39;13.50;95.90
40654;DHT22;26344;45.532;9.232;2023-11-19T08:30:05;13.50;95.50
40654;DHT22;26344;45.532;9.232;2023-11-19T08:32:33;13.60;95.50
40654;DHT22;26344;45.532;9.232;2023-11-19T08:34:59;13.60;95.40
40654;DHT22;26344;45.532;9.232;2023-11-19T08:37:25;13.80;95.50
40654;DHT22;26344;45.532;9.232;2023-11-19T08:39:50;13.90;95.30
40654;DHT22;26344;45.532;9.232;2023-11-19T08:42:16;14.00;95.00
40654;DHT22;26344;45.532;9.232;2023-11-19T08:44:48;14.00;95.30
40654;DHT22;26344;45.532;9.232;2023-11-19T08:47:15;14.10;94.90
40654;DHT22;26344;45.532;9.232;2023-11-19T08:49:43;14.20;94.70
40654;DHT22;26344;45.532;9.232;2023-11-19T08:52:08;14.20;94.50
40654;DHT22;26344;45.532;9.232;2023-11-19T08:54:36;14.30;94.10
40654;DHT22;26344;45.532;9.232;2023-11-19T08:57:01;14.30;93.90
40654;DHT22;26344;45.532;9.232;2023-11-19T08:59:28;14.40;93.50
40654;DHT22;26344;45.532;9.232;2023-11-19T09:01:54;14.40;93.30
40654;DHT22;26344;45.532;9.232;2023-11-19T09:04:19;14.60;95.50
40654;DHT22;26344;45.532;9.232;2023-11-19T09:06:47;14.40;96.80
40654;DHT22;26344;45.532;9.232;2023-11-19T09:09:13;14.50;96.60
40654;DHT22;26344;45.532;9.232;2023-11-19T09:11:39;14.50;92.40
40654;DHT22;26344;45.532;9.232;2023-11-19T09:14:05;15.10;92.50
40654;DHT22;26344;45.532;9.232;2023-11-19T09:16:30;14.90;92.40
40654;DHT22;26344;45.532;9.232;2023-11-19T09:18:56;15.00;92.30
40654;DHT22;26344;45.532;9.232;2023-11-19T09:21:23;15.10;91.80
40654;DHT22;26344;45.532;9.232;2023-11-19T09:23:51;15.40;91.50
40654;DHT22;26344;45.532;9.232;2023-11-19T09:26:19;15.80;90.80
40654;DHT22;26344;45.532;9.232;2023-11-19T09:28:45;16.30;90.10
40654;DHT22;26344;45.532;9.232;2023-11-19T09:31:13;16.80;89.10
40654;DHT22;26344;45.532;9.232;2023-11-19T09:33:39;17.20;87.90
40654;DHT22;26344;45.532;9.232;2023-11-19T09:36:05;17.60;87.20
40654;DHT22;26344;45.532;9.232;2023-11-19T09:38:31;18.30;85.00
40654;DHT22;26344;45.532;9.232;2023-11-19T09:40:58;18.40;85.00
40654;DHT22;26344;45.532;9.232;2023-11-19T09:43:23;18.90;83.60
40654;DHT22;26344;45.532;9.232;2023-11-19T09:45:49;19.00;82.10
40654;DHT22;26344;45.532;9.232;2023-11-19T09:48:18;19.20;81.30
40654;DHT22;26344;45.532;9.232;2023-11-19T09:50:45;19.50;80.00
40654;DHT22;26344;45.532;9.232;2023-11-19T09:53:11;19.70;79.50
40654;DHT22;26344;45.532;9.232;2023-11-19T09:55:37;19.90;79.90
40654;DHT22;26344;45.532;9.232;2023-11-19T09:58:02;20.00;78.90
40654;DHT22;26344;45.532;9.232;2023-11-19T10:00:28;20.00;78.80
40654;DHT22;26344;45.532;9.232;2023-11-19T10:02:55;20.10;77.90
40654;DHT22;26344;45.532;9.232;2023-11-19T10:05:22;20.10;77.40
40654;DHT22;26344;45.532;9.232;2023-11-19T10:07:49;20.10;76.90
40654;DHT22;26344;45.532;9.232;2023-11-19T10:10:15;19.90;76.30
40654;DHT22;26344;45.532;9.232;2023-11-19T10:12:44;19.90;76.20
40654;DHT22;26344;45.532;9.232;2023-11-19T10:15:10;19.80;75.70
40654;DHT22;26344;45.532;9.232;2023-11-19T10:17:42;19.90;75.80
40654;DHT22;26344;45.532;9.232;2023-11-19T10:20:08;19.90;75.80
40654;DHT22;26344;45.532;9.232;2023-11-19T10:24:59;20.30;78.30
40654;DHT22;26344;45.532;9.232;2023-11-19T10:27:25;20.60;77.80
40654;DHT22;26344;45.532;9.232;2023-11-19T10:37:09;20.70;75.20
40654;DHT22;26344;45.532;9.232;2023-11-19T10:39:55;20.90;75.50
40654;DHT22;26344;45.532;9.232;2023-11-19T10:44:46;20.80;75.20
40654;DHT22;26344;45.532;9.232;2023-11-19T10:47:11;20.80;73.80
40654;DHT22;26344;45.532;9.232;2023-11-19T10:49:38;20.70;75.70
40654;DHT22;26344;45.532;9.232;2023-11-19T10:52:05;20.60;74.10
40654;DHT22;26344;45.532;9.232;2023-11-19T10:54:30;20.80;74.10
40654;DHT22;26344;45.532;9.232;2023-11-19T10:56:58;20.80;72.50
40654;DHT22;26344;45.532;9.232;2023-11-19T11:04:23;20.90;73.90
40654;DHT22;26344;45.532;9.232;2023-11-19T11:06:49;21.20;72.70
40654;DHT22;26344;45.532;9.232;2023-11-19T11:09:16;21.10;74.80
40654;DHT22;26344;45.532;9.232;2023-11-19T11:11:44;21.10;72.30
40654;DHT22;26344;45.532;9.232;2023-11-19T11:14:12;21.00;73.00
40654;DHT22;26344;45.532;9.232;2023-11-19T11:16:39;21.10;72.80
40654;DHT22;26344;45.532;9.232;2023-11-19T11:19:07;21.80;73.00
40654;DHT22;26344;45.532;9.232;2023-11-19T11:21:34;21.00;72.80
40654;DHT22;26344;45.532;9.232;2023-11-19T11:28:58;21.50;73.30
40654;DHT22;26344;45.532;9.232;2023-11-19T11:31:40;21.50;75.40
40654;DHT22;26344;45.532;9.232;2023-11-19T11:34:21;21.80;73.70
40654;DHT22;26344;45.532;9.232;2023-11-19T11:37:10;22.00;74.30
40654;DHT22;26344;45.532;9.232;2023-11-19T11:39:40;22.20;74.70
40654;DHT22;26344;45.532;9.232;2023-11-19T11:50:07;23.30;75.50
40654;DHT22;26344;45.532;9.232;2023-11-19T11:52:33;23.60;75.20
40654;DHT22;26344;45.532;9.232;2023-11-19T11:55:04;23.60;74.90
40654;DHT22;26344;45.532;9.232;2023-11-19T11:57:35;23.90;75.00
40654;DHT22;26344;45.532;9.232;2023-11-19T12:00:02;24.10;74.60
40654;DHT22;26344;45.532;9.232;2023-11-19T12:02:30;24.80;74.30
40654;DHT22;26344;45.532;9.232;2023-11-19T12:04:56;25.20;73.60
40654;DHT22;26344;45.532;9.232;2023-11-19T12:07:22;25.50;72.40
40654;DHT22;26344;45.532;9.232;2023-11-19T12:09:51;25.70;72.30
40654;DHT22;26344;45.532;9.232;2023-11-19T12:12:26;26.20;71.70
40654;DHT22;26344;45.532;9.232;2023-11-19T12:20:05;27.60;69.90
40654;DHT22;26344;45.532;9.232;2023-11-19T12:22:35;28.10;69.20
40654;DHT22;26344;45.532;9.232;2023-11-19T12:25:01;28.60;66.50
40654;DHT22;26344;45.532;9.232;2023-11-19T12:27:27;28.90;65.40
40654;DHT22;26344;45.532;9.232;2023-11-19T12:29:53;29.40;63.30
40654;DHT22;26344;45.532;9.232;2023-11-19T12:32:19;30.00;63.20
40654;DHT22;26344;45.532;9.232;2023-11-19T12:34:45;30.30;62.10
40654;DHT22;26344;45.532;9.232;2023-11-19T12:37:10;30.70;61.30
40654;DHT22;26344;45.532;9.232;2023-11-19T12:39:36;31.10;60.60
40654;DHT22;26344;45.532;9.232;2023-11-19T12:42:01;31.40;60.10
40654;DHT22;26344;45.532;9.232;2023-11-19T12:44:27;31.50;59.30
40654;DHT22;26344;45.532;9.232;2023-11-19T12:46:59;31.70;59.00
40654;DHT22;26344;45.532;9.232;2023-11-19T12:49:26;32.00;58.10
40654;DHT22;26344;45.532;9.232;2023-11-19T12:51:51;32.10;57.50
40654;DHT22;26344;45.532;9.232;2023-11-19T12:54:17;32.30;57.10
40654;DHT22;26344;45.532;9.232;2023-11-19T12:56:53;32.60;56.90
40654;DHT22;26344;45.532;9.232;2023-11-19T12:59:19;32.90;56.60
40654;DHT22;26344;45.532;9.232;2023-11-19T13:04:39;33.40;55.80
40654;DHT22;26344;45.532;9.232;2023-11-19T13:07:04;33.70;55.10
40654;DHT22;26344;45.532;9.232;2023-11-19T13:09:30;33.80;54.90
40654;DHT22;26344;45.532;9.232;2023-11-19T13:11:56;33.90;54.60
40654;DHT22;26344;45.532;9.232;2023-11-19T13:14:22;34.20;54.50
40654;DHT22;26344;45.532;9.232;2023-11-19T13:16:47;34.20;54.60
40654;DHT22;26344;45.532;9.232;2023-11-19T13:19:16;34.50;54.40
40654;DHT22;26344;45.532;9.232;2023-11-19T13:21:44;34.40;53.70
40654;DHT22;26344;45.532;9.232;2023-11-19T13:24:12;34.40;54.70
40654;DHT22;26344;45.532;9.232;2023-11-19T13:26:37;34.60;54.10
40654;DHT22;26344;45.532;9.232;2023-11-19T13:29:03;34.70;53.70
40654;DHT22;26344;45.532;9.232;2023-11-19T13:31:29;34.70;53.50
40654;DHT22;26344;45.532;9.232;2023-11-19T13:33:55;34.90;53.50
40654;DHT22;26344;45.532;9.232;2023-11-19T13:36:20;35.00;53.10
40654;DHT22;26344;45.532;9.232;2023-11-19T13:38:46;35.10;53.00
40654;DHT22;26344;45.532;9.232;2023-11-19T13:41:12;35.10;52.90
40654;DHT22;26344;45.532;9.232;2023-11-19T13:43:39;35.10;53.00
40654;DHT22;26344;45.532;9.232;2023-11-19T13:46:05;35.30;52.70
40654;DHT22;26344;45.532;9.232;2023-11-19T13:48:31;35.20;52.50
40654;DHT22;26344;45.532;9.232;2023-11-19T13:50:57;35.20;52.60
40654;DHT22;26344;45.532;9.232;2023-11-19T13:53:23;35.40;53.00
40654;DHT22;26344;45.532;9.232;2023-11-19T13:55:49;35.60;53.00
40654;DHT22;26344;45.532;9.232;2023-11-19T13:58:14;35.80;52.50
40654;DHT22;26344;45.532;9.232;2023-11-19T14:00:41;35.90;52.50
40654;DHT22;26344;45.532;9.232;2023-11-19T14:03:07;36.00;52.30
40654;DHT22;26344;45.532;9.232;2023-11-19T14:05:33;36.00;52.10
40654;DHT22;26344;45.532;9.232;2023-11-19T14:07:58;34.80;51.20
40654;DHT22;26344;45.532;9.232;2023-11-19T14:10:24;35.10;52.10
40654;DHT22;26344;45.532;9.232;2023-11-19T14:12:49;34.30;52.50
40654;DHT22;26344;45.532;9.232;2023-11-19T14:15:15;33.40;52.90
40654;DHT22;26344;45.532;9.232;2023-11-19T14:17:42;32.70;53.40
40654;DHT22;26344;45.532;9.232;2023-11-19T14:20:09;32.10;53.90
40654;DHT22;26344;45.532;9.232;2023-11-19T14:22:42;31.40;54.30
40654;DHT22;26344;45.532;9.232;2023-11-19T14:25:08;30.10;54.30
40654;DHT22;26344;45.532;9.232;2023-11-19T14:27:45;30.40;55.30
40654;DHT22;26344;45.532;9.232;2023-11-19T14:30:12;29.90;55.80
40654;DHT22;26344;45.532;9.232;2023-11-19T14:32:39;29.50;56.20
40654;DHT22;26344;45.532;9.232;2023-11-19T14:35:05;29.60;56.80
40654;DHT22;26344;45.532;9.232;2023-11-19T14:37:31;28.90;56.80
40654;DHT22;26344;45.532;9.232;2023-11-19T14:39:57;28.60;57.30
40654;DHT22;26344;45.532;9.232;2023-11-19T14:42:26;28.30;57.60
40654;DHT22;26344;45.532;9.232;2023-11-19T14:44:51;28.00;57.80
40654;DHT22;26344;45.532;9.232;2023-11-19T14:47:24;27.60;58.20
40654;DHT22;26344;45.532;9.232;2023-11-19T14:49:50;27.20;58.90
40654;DHT22;26344;45.532;9.232;2023-11-19T14:52:15;26.80;59.30
40654;DHT22;26344;45.532;9.232;2023-11-19T14:54:41;26.40;59.90
40654;DHT22;26344;45.532;9.232;2023-11-19T14:57:08;26.00;60.50
40654;DHT22;26344;45.532;9.232;2023-11-19T15:02:00;25.20;65.00
40654;DHT22;26344;45.532;9.232;2023-11-19T15:04:28;25.00;61.70
40654;DHT22;26344;45.532;9.232;2023-11-19T15:06:58;24.50;62.50
40654;DHT22;26344;45.532;9.232;2023-11-19T15:09:26;24.20;66.80
40654;DHT22;26344;45.532;9.232;2023-11-19T15:14:17;23.80;64.30
40654;DHT22;26344;45.532;9.232;2023-11-19T15:16:47;23.80;64.70
40654;DHT22;26344;45.532;9.232;2023-11-19T15:19:13;23.60;65.30
40654;DHT22;26344;45.532;9.232;2023-11-19T15:21:39;23.40;65.90
40654;DHT22;26344;45.532;9.232;2023-11-19T15:24:05;23.20;66.30
40654;DHT22;26344;45.532;9.232;2023-11-19T15:26:33;23.00;66.60
40654;DHT22;26344;45.532;9.232;2023-11-19T15:28:59;22.60;67.00
40654;DHT22;26344;45.532;9.232;2023-11-19T15:31:25;22.70;67.40
40654;DHT22;26344;45.532;9.232;2023-11-19T15:33:51;22.70;67.50
40654;DHT22;26344;45.532;9.232;2023-11-19T15:36:17;22.70;67.90
40654;DHT22;26344;45.532;9.232;2023-11-19T15:38:42;22.70;67.90
40654;DHT22;26344;45.532;9.232;2023-11-19T15:41:08;22.70;68.10
40654;DHT22;26344;45.532;9.232;2023-11-19T15:43:33;22.70;67.90
40654;DHT22;26344;45.532;9.232;2023-11-19T15:45:59;22.50;68.00
40654;DHT22;26344;45.532;9.232;2023-11-19T15:48:25;22.40;68.30
40654;DHT22;26344;45.532;9.232;2023-11-19T15:50:51;22.10;68.30
40654;DHT22;26344;45.532;9.232;2023-11-19T15:53:17;22.10;68.60
40654;DHT22;26344;45.532;9.232;2023-11-19T15:55:43;21.70;68.70
40654;DHT22;26344;45.532;9.232;2023-11-19T16:00:35;21.60;71.00
40654;DHT22;26344;45.532;9.232;2023-11-19T16:03:01;21.50;76.40
40654;DHT22;26344;45.532;9.232;2023-11-19T16:05:26;21.40;69.20
40654;DHT22;26344;45.532;9.232;2023-11-19T16:12:47;21.10;69.70
40654;DHT22;26344;45.532;9.232;2023-11-19T16:17:40;21.00;70.40
40654;DHT22;26344;45.532;9.232;2023-11-19T16:20:07;21.00;70.80